sensor_id;sensor_type;location;lat;lon;timestamp;temperature;humidity
7972;DHT22;4031;49.758;6.120;2023-05-07T00:00:37;10.30;99.90
7972;DHT22;4031;49.758;6.120;2023-05-07T00:03:03;10.30;99.90
7972;DHT22;4031;49.758;6.120;2023-05-07T00:05:29;10.40;99.90
7972;DHT22;4031;49.758;6.120;2023-05-07T00:07:55;10.30;99.90
7972;DHT22;4031;49.758;6.120;2023-05-07T00:10:20;10.30;99.90
7972;DHT22;4031;49.758;6.120;2023-05-07T00:12:46;10.30;99.90
7972;DHT22;4031;49.758;6.120;2023-05-07T00:15:12;10.30;99.90
7972;DHT22;4031;49.758;6.120;2023-05-07T00:17:38;10.20;99.90
7972;DHT22;4031;49.758;6.120;2023-05-07T00:20:05;10.10;99.90
7972;DHT22;4031;49.758;6.120;2023-05-07T00:22:31;10.10;99.90
7972;DHT22;4031;49.758;6.120;2023-05-07T00:24:58;10.00;99.90
7972;DHT22;4031;49.758;6.120;2023-05-07T00:27:24;9.90;99.90
7972;DHT22;4031;49.758;6.120;2023-05-07T00:29:50;9.80;99.90
7972;DHT22;4031;49.758;6.120;2023-05-07T00:32:16;9.80;99.90
7972;DHT22;4031;49.758;6.120;2023-05-07T00:34:43;9.80;99.90
7972;DHT22;4031;49.758;6.120;2023-05-07T00:37:09;9.80;99.90
7972;DHT22;4031;49.758;6.120;2023-05-07T00:39:35;9.80;99.90
7972;DHT22;4031;49.758;6.120;2023-05-07T00:42:01;9.80;99.90
7972;DHT22;4031;49.758;6.120;2023-05-07T00:44:28;9.70;99.90
7972;DHT22;4031;49.758;6.120;2023-05-07T00:46:56;9.70;99.90
7972;DHT22;4031;49.758;6.120;2023-05-07T00:49:25;9.80;99.90
7972;DHT22;4031;49.758;6.120;2023-05-07T00:52:01;9.80;99.90
7972;DHT22;4031;49.758;6.120;2023-05-07T00:54:27;9.90;99.90
7972;DHT22;4031;49.758;6.120;2023-05-07T00:56:54;9.90;99.90
7972;DHT22;4031;49.758;6.120;2023-05-07T00:59:20;9.90;99.90
7972;DHT22;4031;49.758;6.120;2023-05-07T01:01:46;10.00;99.90
7972;DHT22;4031;49.758;6.120;2023-05-07T01:04:11;10.00;99.90
7972;DHT22;4031;49.758;6.120;2023-05-07T01:06:37;10.00;99.90
7972;DHT22;4031;49.758;6.120;2023-05-07T01:09:04;10.10;99.90
7972;DHT22;4031;49.758;6.120;2023-05-07T01:11:30;10.00;99.90
7972;DHT22;4031;49.758;6.120;2023-05-07T01:13:56;9.90;99.90
7972;DHT22;4031;49.758;6.120;2023-05-07T01:16:24;9.80;99.90
7972;DHT22;4031;49.758;6.120;2023-05-07T01:18:50;9.80;99.90
7972;DHT22;4031;49.758;6.120;2023-05-07T01:21:17;9.70;99.90
7972;DHT22;4031;49.758;6.120;2023-05-07T01:23:44;9.60;99.90
7972;DHT22;4031;49.758;6.120;2023-05-07T01:26:10;9.60;99.90
7972;DHT22;4031;49.758;6.120;2023-05-07T01:28:36;9.50;99.90
7972;DHT22;4031;49.758;6.120;2023-05-07T01:31:03;9.40;99.90
7972;DHT22;4031;49.758;6.120;2023-05-07T01:33:32;9.30;99.90
7972;DHT22;4031;49.758;6.120;2023-05-07T01:35:59;9.30;99.90
7972;DHT22;4031;49.758;6.120;2023-05-07T01:38:28;9.30;99.90
7972;DHT22;4031;49.758;6.120;2023-05-07T01:40:53;9.30;99.90
7972;DHT22;4031;49.758;6.120;2023-05-07T01:43:19;9.30;99.90
7972;DHT22;4031;49.758;6.120;2023-05-07T01:45:46;9.30;99.90
7972;DHT22;4031;49.758;6.120;2023-05-07T01:48:14;9.50;99.90
7972;DHT22;4031;49.758;6.120;2023-05-07T01:50:47;9.60;99.90
7972;DHT22;4031;49.758;6.120;2023-05-07T01:53:13;9.50;99.90
7972;DHT22;4031;49.758;6.120;2023-05-07T01:55:39;9.40;99.90
7972;DHT22;4031;49.758;6.120;2023-05-07T01:58:05;9.20;99.90
7972;DHT22;4031;49.758;6.120;2023-05-07T02:00:31;9.00;99.90
7972;DHT22;4031;49.758;6.120;2023-05-07T02:02:57;8.90;99.90
7972;DHT22;4031;49.758;6.120;2023-05-07T02:05:23;8.90;99.90
7972;DHT22;4031;49.758;6.120;2023-05-07T02:07:49;8.80;99.90
7972;DHT22;4031;49.758;6.120;2023-05-07T02:10:14;8.80;99.90
7972;DHT22;4031;49.758;6.120;2023-05-07T02:12:40;8.80;99.90
7972;DHT22;4031;49.758;6.120;2023-05-07T02:15:06;8.90;99.90
7972;DHT22;4031;49.758;6.120;2023-05-07T02:17:32;9.00;99.90
7972;DHT22;4031;49.758;6.120;2023-05-07T02:19:58;9.00;99.90
7972;DHT22;4031;49.758;6.120;2023-05-07T02:22:25;9.00;99.90
7972;DHT22;4031;49.758;6.120;2023-05-07T02:24:51;9.10;99.90
7972;DHT22;4031;49.758;6.120;2023-05-07T02:27:16;9.00;99.90
7972;DHT22;4031;49.758;6.120;2023-05-07T02:29:42;8.90;99.90
7972;DHT22;4031;49.758;6.120;2023-05-07T02:32:08;8.90;99.90
7972;DHT22;4031;49.758;6.120;2023-05-07T02:34:33;8.80;99.90
7972;DHT22;4031;49.758;6.120;2023-05-07T02:36:59;8.70;99.90
7972;DHT22;4031;49.758;6.120;2023-05-07T02:39:25;8.70;99.90
7972;DHT22;4031;49.758;6.120;2023-05-07T02:41:50;8.60;99.90
7972;DHT22;4031;49.758;6.120;2023-05-07T02:44:16;8.50;99.90
7972;DHT22;4031;49.758;6.120;2023-05-07T02:46:42;8.50;99.90
7972;DHT22;4031;49.758;6.120;2023-05-07T02:49:08;8.50;99.90
7972;DHT22;4031;49.758;6.120;2023-05-07T02:51:33;8.50;99.90
7972;DHT22;4031;49.758;6.120;2023-05-07T02:53:59;8.50;99.90
7972;DHT22;4031;49.758;6.120;2023-05-07T02:56:26;8.40;99.90
7972;DHT22;4031;49.758;6.120;2023-05-07T02:58:52;8.40;99.90
7972;DHT22;4031;49.758;6.120;2023-05-07T03:01:18;8.40;99.90
7972;DHT22;4031;49.758;6.120;2023-05-07T03:03:44;8.40;99.90
7972;DHT22;4031;49.758;6.120;2023-05-07T03:06:10;8.30;99.90
7972;DHT22;4031;49.758;6.120;2023-05-07T03:08:35;8.40;99.90
7972;DHT22;4031;49.758;6.120;2023-05-07T03:11:02;8.40;99.90
7972;DHT22;4031;49.758;6.120;2023-05-07T03:13:27;8.50;99.90
7972;DHT22;4031;49.758;6.120;2023-05-07T03:15:53;8.50;99.90
7972;DHT22;4031;49.758;6.120;2023-05-07T03:18:19;8.50;99.90
7972;DHT22;4031;49.758;6.120;2023-05-07T03:20:44;8.50;99.90
7972;DHT22;4031;49.758;6.120;2023-05-07T03:23:11;8.50;99.90
7972;DHT22;4031;49.758;6.120;2023-05-07T03:25:37;8.50;99.90
7972;DHT22;4031;49.758;6.120;2023-05-07T03:28:02;8.50;99.90
7972;DHT22;4031;49.758;6.120;2023-05-07T03:30:28;8.50;99.90
7972;DHT22;4031;49.758;6.120;2023-05-07T03:32:54;8.50;99.90
7972;DHT22;4031;49.758;6.120;2023-05-07T03:35:19;8.50;99.90
7972;DHT22;4031;49.758;6.120;2023-05-07T03:37:45;8.40;99.90
7972;DHT22;4031;49.758;6.120;2023-05-07T03:40:11;8.40;99.90
7972;DHT22;4031;49.758;6.120;2023-05-07T03:42:37;8.30;99.90
7972;DHT22;4031;49.758;6.120;2023-05-07T03:45:03;8.30;99.90
7972;DHT22;4031;49.758;6.120;2023-05-07T03:47:29;8.30;99.90
7972;DHT22;4031;49.758;6.120;2023-05-07T03:49:55;8.20;99.90
7972;DHT22;4031;49.758;6.120;2023-05-07T03:52:21;8.20;99.90
7972;DHT22;4031;49.758;6.120;2023-05-07T03:54:51;8.30;99.90
7972;DHT22;4031;49.758;6.120;2023-05-07T03:57:18;8.40;99.90
7972;DHT22;4031;49.758;6.120;2023-05-07T03:59:43;8.50;99.90
7972;DHT22;4031;49.758;6.120;2023-05-07T04:02:09;8.70;99.90
7972;DHT22;4031;49.758;6.120;2023-05-07T04:04:35;8.60;99.90
7972;DHT22;4031;49.758;6.120;2023-05-07T04:07:01;8.80;99.90
7972;DHT22;4031;49.758;6.120;2023-05-07T04:09:26;8.60;99.90
7972;DHT22;4031;49.758;6.120;2023-05-07T04:11:52;8.70;99.90
7972;DHT22;4031;49.758;6.120;2023-05-07T04:14:18;8.70;99.90
7972;DHT22;4031;49.758;6.120;2023-05-07T04:16:44;8.60;99.90
7972;DHT22;4031;49.758;6.120;2023-05-07T04:19:09;8.70;99.90
7972;DHT22;4031;49.758;6.120;2023-05-07T04:21:35;8.60;99.90
7972;DHT22;4031;49.758;6.120;2023-05-07T04:24:24;8.60;99.90
7972;DHT22;4031;49.758;6.120;2023-05-07T04:26:50;8.50;99.90
7972;DHT22;4031;49.758;6.120;2023-05-07T04:29:16;8.40;99.90
7972;DHT22;4031;49.758;6.120;2023-05-07T04:31:42;8.40;99.90
7972;DHT22;4031;49.758;6.120;2023-05-07T04:34:10;8.50;99.90
7972;DHT22;4031;49.758;6.120;2023-05-07T04:36:38;8.40;99.90
7972;DHT22;4031;49.758;6.120;2023-05-07T04:39:04;8.50;99.90
7972;DHT22;4031;49.758;6.120;2023-05-07T04:41:30;8.50;99.90
7972;DHT22;4031;49.758;6.120;2023-05-07T04:43:56;8.50;99.90
7972;DHT22;4031;49.758;6.120;2023-05-07T04:46:24;8.60;99.90
7972;DHT22;4031;49.758;6.120;2023-05-07T04:48:50;8.60;99.90
7972;DHT22;4031;49.758;6.120;2023-05-07T04:51:16;8.70;99.90
7972;DHT22;4031;49.758;6.120;2023-05-07T04:53:42;8.80;99.90
7972;DHT22;4031;49.758;6.120;2023-05-07T04:56:08;8.90;99.90
7972;DHT22;4031;49.758;6.120;2023-05-07T04:58:34;8.90;99.90
7972;DHT22;4031;49.758;6.120;2023-05-07T05:01:00;9.10;99.90
7972;DHT22;4031;49.758;6.120;2023-05-07T05:03:26;9.20;99.90
7972;DHT22;4031;49.758;6.120;2023-05-07T05:05:53;9.30;99.90
7972;DHT22;4031;49.758;6.120;2023-05-07T05:08:24;9.30;99.90
7972;DHT22;4031;49.758;6.120;2023-05-07T05:10:50;9.40;99.90
7972;DHT22;4031;49.758;6.120;2023-05-07T05:13:16;9.50;99.90
7972;DHT22;4031;49.758;6.120;2023-05-07T05:15:42;9.60;99.90
7972;DHT22;4031;49.758;6.120;2023-05-07T05:18:08;9.70;99.90
7972;DHT22;4031;49.758;6.120;2023-05-07T05:20:34;10.00;99.90
7972;DHT22;4031;49.758;6.120;2023-05-07T05:23:00;9.90;99.90
7972;DHT22;4031;49.758;6.120;2023-05-07T05:25:26;10.10;99.90
7972;DHT22;4031;49.758;6.120;2023-05-07T05:27:52;10.40;99.90
7972;DHT22;4031;49.758;6.120;2023-05-07T05:30:18;10.60;99.90
7972;DHT22;4031;49.758;6.120;2023-05-07T05:32:44;10.70;99.90
7972;DHT22;4031;49.758;6.120;2023-05-07T05:35:10;10.70;99.90
7972;DHT22;4031;49.758;6.120;2023-05-07T05:37:36;10.90;99.90
7972;DHT22;4031;49.758;6.120;2023-05-07T05:40:02;10.90;99.90
7972;DHT22;4031;49.758;6.120;2023-05-07T05:42:28;11.00;99.90
7972;DHT22;4031;49.758;6.120;2023-05-07T05:44:54;11.10;99.90
7972;DHT22;4031;49.758;6.120;2023-05-07T05:47:20;11.30;99.90
7972;DHT22;4031;49.758;6.120;2023-05-07T05:49:46;11.30;99.90
7972;DHT22;4031;49.758;6.120;2023-05-07T05:52:12;11.50;99.90
7972;DHT22;4031;49.758;6.120;2023-05-07T05:54:39;11.50;99.90
7972;DHT22;4031;49.758;6.120;2023-05-07T05:57:05;11.70;99.90
7972;DHT22;4031;49.758;6.120;2023-05-07T05:59:35;11.80;99.90
7972;DHT22;4031;49.758;6.120;2023-05-07T06:02:01;12.00;99.90
7972;DHT22;4031;49.758;6.120;2023-05-07T06:04:27;12.30;99.90
7972;DHT22;4031;49.758;6.120;2023-05-07T06:06:53;12.60;99.90
7972;DHT22;4031;49.758;6.120;2023-05-07T06:09:19;12.90;99.90
7972;DHT22;4031;49.758;6.120;2023-05-07T06:11:45;13.10;99.90
7972;DHT22;4031;49.758;6.120;2023-05-07T06:14:11;13.30;99.90
7972;DHT22;4031;49.758;6.120;2023-05-07T06:16:37;13.40;99.90
7972;DHT22;4031;49.758;6.120;2023-05-07T06:19:03;13.70;99.90
7972;DHT22;4031;49.758;6.120;2023-05-07T06:21:29;13.80;99.90
7972;DHT22;4031;49.758;6.120;2023-05-07T06:23:56;14.10;99.90
7972;DHT22;4031;49.758;6.120;2023-05-07T06:26:22;14.30;99.90
7972;DHT22;4031;49.758;6.120;2023-05-07T06:28:48;14.50;99.90
7972;DHT22;4031;49.758;6.120;2023-05-07T06:31:15;14.80;99.90
7972;DHT22;4031;49.758;6.120;2023-05-07T06:33:43;15.00;99.90
7972;DHT22;4031;49.758;6.120;2023-05-07T06:36:10;15.20;99.90
7972;DHT22;4031;49.758;6.120;2023-05-07T06:38:36;15.20;99.90
7972;DHT22;4031;49.758;6.120;2023-05-07T06:41:02;15.30;99.90
7972;DHT22;4031;49.758;6.120;2023-05-07T06:43:28;15.50;99.90
7972;DHT22;4031;49.758;6.120;2023-05-07T06:45:54;15.60;99.90
7972;DHT22;4031;49.758;6.120;2023-05-07T06:48:20;15.60;99.90
7972;DHT22;4031;49.758;6.120;2023-05-07T06:50:46;15.70;99.90
7972;DHT22;4031;49.758;6.120;2023-05-07T06:53:12;15.70;99.90
7972;DHT22;4031;49.758;6.120;2023-05-07T06:55:41;15.70;99.90
7972;DHT22;4031;49.758;6.120;2023-05-07T06:58:08;15.60;99.90
7972;DHT22;4031;49.758;6.120;2023-05-07T07:00:34;15.50;99.90
7972;DHT22;4031;49.758;6.120;2023-05-07T07:03:00;15.50;99.90
7972;DHT22;4031;49.758;6.120;2023-05-07T07:05:26;15.20;99.90
7972;DHT22;4031;49.758;6.120;2023-05-07T07:07:52;15.30;99.90
7972;DHT22;4031;49.758;6.120;2023-05-07T07:10:21;15.40;99.90
7972;DHT22;4031;49.758;6.120;2023-05-07T07:12:53;15.40;99.90
7972;DHT22;4031;49.758;6.120;2023-05-07T07:15:20;15.50;99.90
7972;DHT22;4031;49.758;6.120;2023-05-07T07:17:50;15.60;99.90
7972;DHT22;4031;49.758;6.120;2023-05-07T07:20:17;15.70;99.90
7972;DHT22;4031;49.758;6.120;2023-05-07T07:22:43;15.90;99.90
7972;DHT22;4031;49.758;6.120;2023-05-07T07:25:09;16.00;99.90
7972;DHT22;4031;49.758;6.120;2023-05-07T07:27:38;16.30;99.90
7972;DHT22;4031;49.758;6.120;2023-05-07T07:30:06;16.60;99.90
7972;DHT22;4031;49.758;6.120;2023-05-07T07:32:34;16.90;99.90
7972;DHT22;4031;49.758;6.120;2023-05-07T07:35:00;17.20;99.90
7972;DHT22;4031;49.758;6.120;2023-05-07T07:37:27;17.60;99.90
7972;DHT22;4031;49.758;6.120;2023-05-07T07:39:53;18.00;99.90
7972;DHT22;4031;49.758;6.120;2023-05-07T07:42:19;18.50;99.90
7972;DHT22;4031;49.758;6.120;2023-05-07T07:44:45;19.00;99.90
7972;DHT22;4031;49.758;6.120;2023-05-07T07:47:12;19.70;99.90
7972;DHT22;4031;49.758;6.120;2023-05-07T07:49:38;20.00;99.90
7972;DHT22;4031;49.758;6.120;2023-05-07T07:52:05;20.60;99.90
7972;DHT22;4031;49.758;6.120;2023-05-07T07:54:39;21.60;99.90
7972;DHT22;4031;49.758;6.120;2023-05-07T08:00:19;23.20;99.90
7972;DHT22;4031;49.758;6.120;2023-05-07T08:02:45;23.70;99.90
7972;DHT22;4031;49.758;6.120;2023-05-07T08:05:11;23.90;99.90
7972;DHT22;4031;49.758;6.120;2023-05-07T08:07:36;23.90;99.90
7972;DHT22;4031;49.758;6.120;2023-05-07T08:10:02;24.30;99.90
7972;DHT22;4031;49.758;6.120;2023-05-07T08:12:28;24.50;99.90
7972;DHT22;4031;49.758;6.120;2023-05-07T08:14:54;24.50;99.90
7972;DHT22;4031;49.758;6.120;2023-05-07T08:17:20;24.40;99.90
7972;DHT22;4031;49.758;6.120;2023-05-07T08:19:48;23.90;99.90
7972;DHT22;4031;49.758;6.120;2023-05-07T08:22:13;23.50;99.90
7972;DHT22;4031;49.758;6.120;2023-05-07T08:24:40;23.50;99.90
7972;DHT22;4031;49.758;6.120;2023-05-07T08:27:05;23.50;99.90
7972;DHT22;4031;49.758;6.120;2023-05-07T08:29:31;23.40;99.90
7972;DHT22;4031;49.758;6.120;2023-05-07T08:31:57;23.30;99.90
7972;DHT22;4031;49.758;6.120;2023-05-07T08:34:22;23.10;99.90
7972;DHT22;4031;49.758;6.120;2023-05-07T08:36:48;23.20;99.90
7972;DHT22;4031;49.758;6.120;2023-05-07T08:39:17;23.30;99.90
7972;DHT22;4031;49.758;6.120;2023-05-07T08:41:46;23.30;99.90
7972;DHT22;4031;49.758;6.120;2023-05-07T08:44:13;23.00;99.90
7972;DHT22;4031;49.758;6.120;2023-05-07T08:46:40;23.00;99.90
7972;DHT22;4031;49.758;6.120;2023-05-07T08:49:07;23.00;99.90
7972;DHT22;4031;49.758;6.120;2023-05-07T08:51:33;23.10;99.90
7972;DHT22;4031;49.758;6.120;2023-05-07T08:53:59;23.20;99.90
7972;DHT22;4031;49.758;6.120;2023-05-07T08:56:26;23.60;99.90
7972;DHT22;4031;49.758;6.120;2023-05-07T08:58:52;23.90;99.90
7972;DHT22;4031;49.758;6.120;2023-05-07T09:01:21;24.30;99.90
7972;DHT22;4031;49.758;6.120;2023-05-07T09:03:47;24.50;99.90
7972;DHT22;4031;49.758;6.120;2023-05-07T09:06:13;24.80;99.90
7972;DHT22;4031;49.758;6.120;2023-05-07T09:08:39;25.60;99.90
7972;DHT22;4031;49.758;6.120;2023-05-07T09:11:05;26.80;99.90
7972;DHT22;4031;49.758;6.120;2023-05-07T09:13:30;28.00;99.90
7972;DHT22;4031;49.758;6.120;2023-05-07T09:15:56;28.30;99.90
7972;DHT22;4031;49.758;6.120;2023-05-07T09:18:24;28.70;99.90
7972;DHT22;4031;49.758;6.120;2023-05-07T09:20:50;29.20;99.90
7972;DHT22;4031;49.758;6.120;2023-05-07T09:23:16;29.80;99.90
7972;DHT22;4031;49.758;6.120;2023-05-07T09:25:42;30.40;99.90
7972;DHT22;4031;49.758;6.120;2023-05-07T09:28:08;30.70;99.90
7972;DHT22;4031;49.758;6.120;2023-05-07T09:30:35;30.70;99.90
7972;DHT22;4031;49.758;6.120;2023-05-07T09:33:03;31.40;99.90
7972;DHT22;4031;49.758;6.120;2023-05-07T09:35:29;31.60;99.90
7972;DHT22;4031;49.758;6.120;2023-05-07T09:38:00;31.80;99.90
7972;DHT22;4031;49.758;6.120;2023-05-07T09:40:28;31.90;99.90
7972;DHT22;4031;49.758;6.120;2023-05-07T09:42:55;32.20;99.90
7972;DHT22;4031;49.758;6.120;2023-05-07T09:45:30;31.90;99.90
7972;DHT22;4031;49.758;6.120;2023-05-07T09:47:57;32.10;99.90
7972;DHT22;4031;49.758;6.120;2023-05-07T09:50:35;32.40;99.90
7972;DHT22;4031;49.758;6.120;2023-05-07T09:53:03;31.90;99.90
7972;DHT22;4031;49.758;6.120;2023-05-07T09:55:30;31.90;99.90
7972;DHT22;4031;49.758;6.120;2023-05-07T09:57:57;31.70;99.90
7972;DHT22;4031;49.758;6.120;2023-05-07T10:00:25;31.50;99.90
7972;DHT22;4031;49.758;6.120;2023-05-07T10:02:52;31.40;99.30
7972;DHT22;4031;49.758;6.120;2023-05-07T10:05:19;31.90;99.90
7972;DHT22;4031;49.758;6.120;2023-05-07T10:07:48;32.40;98.10
7972;DHT22;4031;49.758;6.120;2023-05-07T10:10:14;33.00;99.10
7972;DHT22;4031;49.758;6.120;2023-05-07T10:12:43;33.50;97.70
7972;DHT22;4031;49.758;6.120;2023-05-07T10:15:11;33.80;98.00
7972;DHT22;4031;49.758;6.120;2023-05-07T10:17:38;33.70;94.30
7972;DHT22;4031;49.758;6.120;2023-05-07T10:20:08;33.20;91.70
7972;DHT22;4031;49.758;6.120;2023-05-07T10:22:45;32.90;90.30
7972;DHT22;4031;49.758;6.120;2023-05-07T10:25:21;32.60;88.70
7972;DHT22;4031;49.758;6.120;2023-05-07T10:27:50;31.70;89.30
7972;DHT22;4031;49.758;6.120;2023-05-07T10:30:27;31.70;91.40
7972;DHT22;4031;49.758;6.120;2023-05-07T10:33:03;31.60;90.70
7972;DHT22;4031;49.758;6.120;2023-05-07T10:35:36;31.30;91.30
7972;DHT22;4031;49.758;6.120;2023-05-07T10:38:05;30.90;92.00
7972;DHT22;4031;49.758;6.120;2023-05-07T10:40:31;30.50;90.20
7972;DHT22;4031;49.758;6.120;2023-05-07T10:42:58;30.40;90.60
7972;DHT22;4031;49.758;6.120;2023-05-07T10:45:26;30.60;88.20
7972;DHT22;4031;49.758;6.120;2023-05-07T10:48:15;30.30;90.10
7972;DHT22;4031;49.758;6.120;2023-05-07T10:50:42;29.60;90.20
7972;DHT22;4031;49.758;6.120;2023-05-07T10:55:51;29.80;91.20
7972;DHT22;4031;49.758;6.120;2023-05-07T10:58:42;30.00;90.00
7972;DHT22;4031;49.758;6.120;2023-05-07T11:01:08;30.20;87.70
7972;DHT22;4031;49.758;6.120;2023-05-07T11:03:35;30.40;85.50
7972;DHT22;4031;49.758;6.120;2023-05-07T11:08:55;29.30;85.00
7972;DHT22;4031;49.758;6.120;2023-05-07T11:11:47;28.10;86.00
7972;DHT22;4031;49.758;6.120;2023-05-07T11:17:08;26.70;90.80
7972;DHT22;4031;49.758;6.120;2023-05-07T11:19:51;26.30;92.00
7972;DHT22;4031;49.758;6.120;2023-05-07T11:25:00;25.10;91.80
7972;DHT22;4031;49.758;6.120;2023-05-07T11:27:27;24.60;93.80
7972;DHT22;4031;49.758;6.120;2023-05-07T11:29:53;24.20;95.00
7972;DHT22;4031;49.758;6.120;2023-05-07T11:32:25;23.90;93.60
7972;DHT22;4031;49.758;6.120;2023-05-07T11:34:53;23.70;92.80
7972;DHT22;4031;49.758;6.120;2023-05-07T11:37:20;23.50;98.50
7972;DHT22;4031;49.758;6.120;2023-05-07T11:39:47;23.40;99.60
7972;DHT22;4031;49.758;6.120;2023-05-07T11:42:45;23.20;99.90
7972;DHT22;4031;49.758;6.120;2023-05-07T11:45:11;23.00;99.90
7972;DHT22;4031;49.758;6.120;2023-05-07T11:47:37;22.70;99.90
7972;DHT22;4031;49.758;6.120;2023-05-07T11:50:06;22.20;99.90
7972;DHT22;4031;49.758;6.120;2023-05-07T11:52:33;22.20;99.90
7972;DHT22;4031;49.758;6.120;2023-05-07T11:55:01;22.40;99.90
7972;DHT22;4031;49.758;6.120;2023-05-07T11:57:28;22.50;99.90
7972;DHT22;4031;49.758;6.120;2023-05-07T11:59:55;22.70;99.90
7972;DHT22;4031;49.758;6.120;2023-05-07T12:02:25;22.80;99.90
7972;DHT22;4031;49.758;6.120;2023-05-07T12:04:52;23.00;99.90
7972;DHT22;4031;49.758;6.120;2023-05-07T12:07:18;23.10;99.90
7972;DHT22;4031;49.758;6.120;2023-05-07T12:09:45;23.10;99.90
7972;DHT22;4031;49.758;6.120;2023-05-07T12:12:11;23.10;99.90
7972;DHT22;4031;49.758;6.120;2023-05-07T12:14:39;23.10;99.90
7972;DHT22;4031;49.758;6.120;2023-05-07T12:17:07;23.10;99.90
7972;DHT22;4031;49.758;6.120;2023-05-07T12:19:34;23.40;99.90
7972;DHT22;4031;49.758;6.120;2023-05-07T12:22:04;23.60;99.90
7972;DHT22;4031;49.758;6.120;2023-05-07T12:24:44;23.70;99.90
7972;DHT22;4031;49.758;6.120;2023-05-07T12:27:14;23.80;99.90
7972;DHT22;4031;49.758;6.120;2023-05-07T12:29:46;23.90;99.90
7972;DHT22;4031;49.758;6.120;2023-05-07T12:32:14;24.10;99.90
7972;DHT22;4031;49.758;6.120;2023-05-07T12:34:41;24.40;99.90
7972;DHT22;4031;49.758;6.120;2023-05-07T12:37:07;25.00;99.90
7972;DHT22;4031;49.758;6.120;2023-05-07T12:39:32;25.90;99.90
7972;DHT22;4031;49.758;6.120;2023-05-07T12:41:59;26.30;99.90
7972;DHT22;4031;49.758;6.120;2023-05-07T12:44:28;26.50;99.90
7972;DHT22;4031;49.758;6.120;2023-05-07T12:46:55;26.50;99.90
7972;DHT22;4031;49.758;6.120;2023-05-07T12:49:23;26.40;99.90
7972;DHT22;4031;49.758;6.120;2023-05-07T12:51:50;26.40;99.90
7972;DHT22;4031;49.758;6.120;2023-05-07T12:54:33;26.20;99.90
7972;DHT22;4031;49.758;6.120;2023-05-07T12:57:07;26.00;99.90
7972;DHT22;4031;49.758;6.120;2023-05-07T12:59:38;25.90;99.90
7972;DHT22;4031;49.758;6.120;2023-05-07T13:02:05;25.60;99.90
7972;DHT22;4031;49.758;6.120;2023-05-07T13:04:31;24.90;99.90
7972;DHT22;4031;49.758;6.120;2023-05-07T13:06:58;24.70;99.90
7972;DHT22;4031;49.758;6.120;2023-05-07T13:09:24;24.40;99.90
7972;DHT22;4031;49.758;6.120;2023-05-07T13:11:50;24.20;99.90
7972;DHT22;4031;49.758;6.120;2023-05-07T13:14:15;23.60;99.90
7972;DHT22;4031;49.758;6.120;2023-05-07T13:16:41;23.00;99.90
7972;DHT22;4031;49.758;6.120;2023-05-07T13:19:07;22.80;99.90
7972;DHT22;4031;49.758;6.120;2023-05-07T13:21:33;22.50;99.90
7972;DHT22;4031;49.758;6.120;2023-05-07T13:23:58;22.30;99.90
7972;DHT22;4031;49.758;6.120;2023-05-07T13:26:25;22.20;99.90
7972;DHT22;4031;49.758;6.120;2023-05-07T13:28:52;22.00;99.90
7972;DHT22;4031;49.758;6.120;2023-05-07T13:31:18;22.00;99.90
7972;DHT22;4031;49.758;6.120;2023-05-07T13:33:46;22.00;99.90
7972;DHT22;4031;49.758;6.120;2023-05-07T13:36:12;22.00;99.90
7972;DHT22;4031;49.758;6.120;2023-05-07T13:38:38;22.10;99.90
7972;DHT22;4031;49.758;6.120;2023-05-07T13:41:04;22.10;99.90
7972;DHT22;4031;49.758;6.120;2023-05-07T13:43:30;22.00;99.90
7972;DHT22;4031;49.758;6.120;2023-05-07T13:45:57;22.20;99.90
7972;DHT22;4031;49.758;6.120;2023-05-07T13:48:22;22.50;99.90
7972;DHT22;4031;49.758;6.120;2023-05-07T13:50:48;22.80;99.90
7972;DHT22;4031;49.758;6.120;2023-05-07T13:53:14;23.10;99.90
7972;DHT22;4031;49.758;6.120;2023-05-07T13:55:43;23.20;99.90
7972;DHT22;4031;49.758;6.120;2023-05-07T13:58:09;23.30;99.90
7972;DHT22;4031;49.758;6.120;2023-05-07T14:00:35;23.30;99.90
7972;DHT22;4031;49.758;6.120;2023-05-07T14:03:01;23.40;99.90
7972;DHT22;4031;49.758;6.120;2023-05-07T14:05:27;23.50;99.90
7972;DHT22;4031;49.758;6.120;2023-05-07T14:07:56;23.50;99.90
7972;DHT22;4031;49.758;6.120;2023-05-07T14:10:23;23.60;99.90
7972;DHT22;4031;49.758;6.120;2023-05-07T14:12:48;23.70;99.90
7972;DHT22;4031;49.758;6.120;2023-05-07T14:15:14;23.60;99.90
7972;DHT22;4031;49.758;6.120;2023-05-07T14:17:41;23.50;99.90
7972;DHT22;4031;49.758;6.120;2023-05-07T14:20:08;23.30;99.90
7972;DHT22;4031;49.758;6.120;2023-05-07T14:22:34;23.10;99.90
7972;DHT22;4031;49.758;6.120;2023-05-07T14:25:00;23.00;99.90
7972;DHT22;4031;49.758;6.120;2023-05-07T14:27:25;22.80;99.90
7972;DHT22;4031;49.758;6.120;2023-05-07T14:29:51;22.70;99.90
7972;DHT22;4031;49.758;6.120;2023-05-07T14:32:17;22.60;99.90
7972;DHT22;4031;49.758;6.120;2023-05-07T14:34:44;22.50;99.90
7972;DHT22;4031;49.758;6.120;2023-05-07T14:37:10;22.40;99.90
7972;DHT22;4031;49.758;6.120;2023-05-07T14:39:36;22.30;99.90
7972;DHT22;4031;49.758;6.120;2023-05-07T14:42:01;22.20;99.90
7972;DHT22;4031;49.758;6.120;2023-05-07T14:44:27;22.20;99.90
7972;DHT22;4031;49.758;6.120;2023-05-07T14:46:53;22.20;99.90
7972;DHT22;4031;49.758;6.120;2023-05-07T14:49:19;22.20;99.90
7972;DHT22;4031;49.758;6.120;2023-05-07T14:51:46;22.20;99.90
7972;DHT22;4031;49.758;6.120;2023-05-07T14:54:12;22.20;99.90
7972;DHT22;4031;49.758;6.120;2023-05-07T14:56:39;22.20;99.90
7972;DHT22;4031;49.758;6.120;2023-05-07T14:59:05;22.30;99.90
7972;DHT22;4031;49.758;6.120;2023-05-07T15:01:30;22.20;99.90
7972;DHT22;4031;49.758;6.120;2023-05-07T15:03:56;22.10;99.90
7972;DHT22;4031;49.758;6.120;2023-05-07T15:06:22;22.10;99.90
7972;DHT22;4031;49.758;6.120;2023-05-07T15:08:47;22.20;99.90
7972;DHT22;4031;49.758;6.120;2023-05-07T15:11:16;22.20;99.90
7972;DHT22;4031;49.758;6.120;2023-05-07T15:13:45;22.20;99.90
7972;DHT22;4031;49.758;6.120;2023-05-07T15:16:10;22.10;99.90
7972;DHT22;4031;49.758;6.120;2023-05-07T15:18:36;21.90;99.90
7972;DHT22;4031;49.758;6.120;2023-05-07T15:21:02;21.90;99.90
7972;DHT22;4031;49.758;6.120;2023-05-07T15:23:27;21.80;99.90
7972;DHT22;4031;49.758;6.120;2023-05-07T15:25:53;21.70;99.90
7972;DHT22;4031;49.758;6.120;2023-05-07T15:28:19;21.50;99.90
7972;DHT22;4031;49.758;6.120;2023-05-07T15:30:45;21.30;99.90
7972;DHT22;4031;49.758;6.120;2023-05-07T15:33:10;21.20;99.90
7972;DHT22;4031;49.758;6.120;2023-05-07T15:35:36;21.10;99.90
7972;DHT22;4031;49.758;6.120;2023-05-07T15:38:02;20.90;99.90
7972;DHT22;4031;49.758;6.120;2023-05-07T15:40:28;21.00;99.90
7972;DHT22;4031;49.758;6.120;2023-05-07T15:42:55;20.70;99.90
7972;DHT22;4031;49.758;6.120;2023-05-07T15:45:22;20.70;99.90
7972;DHT22;4031;49.758;6.120;2023-05-07T15:47:48;20.60;99.90
7972;DHT22;4031;49.758;6.120;2023-05-07T15:50:14;20.60;99.90
7972;DHT22;4031;49.758;6.120;2023-05-07T15:52:40;20.70;99.90
7972;DHT22;4031;49.758;6.120;2023-05-07T15:55:07;20.80;99.90
7972;DHT22;4031;49.758;6.120;2023-05-07T15:57:34;20.90;99.90
7972;DHT22;4031;49.758;6.120;2023-05-07T16:00:00;21.00;99.90
7972;DHT22;4031;49.758;6.120;2023-05-07T16:02:26;21.00;99.90
7972;DHT22;4031;49.758;6.120;2023-05-07T16:04:52;20.90;99.90
7972;DHT22;4031;49.758;6.120;2023-05-07T16:07:18;21.00;99.90
7972;DHT22;4031;49.758;6.120;2023-05-07T16:09:44;20.80;99.90
7972;DHT22;4031;49.758;6.120;2023-05-07T16:12:10;20.90;99.90
7972;DHT22;4031;49.758;6.120;2023-05-07T16:14:36;20.80;99.90
7972;DHT22;4031;49.758;6.120;2023-05-07T16:17:02;20.90;99.90
7972;DHT22;4031;49.758;6.120;2023-05-07T16:19:28;20.90;99.90